sensor_id;sensor_type;location;lat;lon;timestamp;P1;durP1;ratioP1;P2;durP2;ratioP2
26906;SDS011;14472;56.880;16.658;2023-09-19T00:00:36;11.38;;;10.23;;
26906;SDS011;14472;56.880;16.658;2023-09-19T00:03:02;11.77;;;10.25;;
26906;SDS011;14472;56.880;16.658;2023-09-19T00:05:30;14.00;;;10.73;;
26906;SDS011;14472;56.880;16.658;2023-09-19T00:08:00;16.83;;;10.30;;
26906;SDS011;14472;56.880;16.658;2023-09-19T00:10:27;14.10;;;11.00;;
26906;SDS011;14472;56.880;16.658;2023-09-19T00:12:59;14.25;;;11.18;;
26906;SDS011;14472;56.880;16.658;2023-09-19T00:15:26;14.40;;;10.93;;
26906;SDS011;14472;56.880;16.658;2023-09-19T00:17:55;12.40;;;11.05;;
26906;SDS011;14472;56.880;16.658;2023-09-19T00:20:21;12.32;;;11.07;;
26906;SDS011;14472;56.880;16.658;2023-09-19T00:22:48;13.75;;;11.57;;
26906;SDS011;14472;56.880;16.658;2023-09-19T00:25:18;12.85;;;11.55;;
26906;SDS011;14472;56.880;16.658;2023-09-19T00:27:47;12.88;;;10.98;;
26906;SDS011;14472;56.880;16.658;2023-09-19T00:30:15;13.25;;;11.70;;
26906;SDS011;14472;56.880;16.658;2023-09-19T00:32:45;13.07;;;10.90;;
26906;SDS011;14472;56.880;16.658;2023-09-19T00:35:14;13.52;;;12.10;;
26906;SDS011;14472;56.880;16.658;2023-09-19T00:37:40;12.98;;;11.63;;
26906;SDS011;14472;56.880;16.658;2023-09-19T00:40:07;12.85;;;11.63;;
26906;SDS011;14472;56.880;16.658;2023-09-19T00:42:37;12.90;;;11.60;;
26906;SDS011;14472;56.880;16.658;2023-09-19T00:45:07;13.80;;;12.32;;
26906;SDS011;14472;56.880;16.658;2023-09-19T00:47:35;15.63;;;12.73;;
26906;SDS011;14472;56.880;16.658;2023-09-19T00:50:02;14.43;;;12.27;;
26906;SDS011;14472;56.880;16.658;2023-09-19T00:52:32;14.80;;;12.50;;
26906;SDS011;14472;56.880;16.658;2023-09-19T00:55:01;13.20;;;11.93;;
26906;SDS011;14472;56.880;16.658;2023-09-19T00:57:28;12.93;;;11.65;;
26906;SDS011;14472;56.880;16.658;2023-09-19T00:59:58;14.38;;;12.00;;
26906;SDS011;14472;56.880;16.658;2023-09-19T01:02:24;15.77;;;12.50;;
26906;SDS011;14472;56.880;16.658;2023-09-19T01:04:53;13.88;;;12.18;;
26906;SDS011;14472;56.880;16.658;2023-09-19T01:07:20;14.57;;;12.63;;
26906;SDS011;14472;56.880;16.658;2023-09-19T01:09:47;13.60;;;12.10;;
26906;SDS011;14472;56.880;16.658;2023-09-19T01:12:15;15.38;;;12.25;;
26906;SDS011;14472;56.880;16.658;2023-09-19T01:14:55;14.77;;;12.68;;
26906;SDS011;14472;56.880;16.658;2023-09-19T01:17:38;17.73;;;12.23;;
26906;SDS011;14472;56.880;16.658;2023-09-19T01:20:17;13.57;;;12.25;;
26906;SDS011;14472;56.880;16.658;2023-09-19T01:23:05;13.85;;;12.35;;
26906;SDS011;14472;56.880;16.658;2023-09-19T01:25:46;13.98;;;12.40;;
26906;SDS011;14472;56.880;16.658;2023-09-19T01:31:03;13.77;;;12.38;;
26906;SDS011;14472;56.880;16.658;2023-09-19T01:36:22;14.98;;;12.15;;
26906;SDS011;14472;56.880;16.658;2023-09-19T01:38:49;14.45;;;12.95;;
26906;SDS011;14472;56.880;16.658;2023-09-19T01:41:17;15.30;;;13.07;;
26906;SDS011;14472;56.880;16.658;2023-09-19T01:43:58;16.90;;;13.05;;
26906;SDS011;14472;56.880;16.658;2023-09-19T01:46:30;14.48;;;12.90;;
26906;SDS011;14472;56.880;16.658;2023-09-19T01:52:09;15.20;;;13.10;;
26906;SDS011;14472;56.880;16.658;2023-09-19T01:54:51;14.27;;;12.82;;
26906;SDS011;14472;56.880;16.658;2023-09-19T01:57:35;17.73;;;13.40;;
26906;SDS011;14472;56.880;16.658;2023-09-19T02:00:09;17.58;;;13.13;;
26906;SDS011;14472;56.880;16.658;2023-09-19T02:02:44;14.85;;;13.35;;
26906;SDS011;14472;56.880;16.658;2023-09-19T02:05:12;15.75;;;13.48;;
26906;SDS011;14472;56.880;16.658;2023-09-19T02:07:38;15.30;;;13.10;;
26906;SDS011;14472;56.880;16.658;2023-09-19T02:10:05;15.63;;;12.85;;
26906;SDS011;14472;56.880;16.658;2023-09-19T02:12:32;14.48;;;12.65;;
26906;SDS011;14472;56.880;16.658;2023-09-19T02:14:59;14.65;;;13.05;;
26906;SDS011;14472;56.880;16.658;2023-09-19T02:17:25;14.27;;;12.77;;
26906;SDS011;14472;56.880;16.658;2023-09-19T02:19:54;14.23;;;12.65;;
26906;SDS011;14472;56.880;16.658;2023-09-19T02:22:20;16.95;;;13.60;;
26906;SDS011;14472;56.880;16.658;2023-09-19T02:24:47;15.27;;;12.95;;
26906;SDS011;14472;56.880;16.658;2023-09-19T02:27:13;15.13;;;12.32;;
26906;SDS011;14472;56.880;16.658;2023-09-19T02:29:41;16.08;;;12.70;;
26906;SDS011;14472;56.880;16.658;2023-09-19T02:32:07;14.30;;;12.77;;
26906;SDS011;14472;56.880;16.658;2023-09-19T02:34:34;13.68;;;12.35;;
26906;SDS011;14472;56.880;16.658;2023-09-19T02:37:02;13.65;;;12.25;;
26906;SDS011;14472;56.880;16.658;2023-09-19T02:39:30;12.77;;;11.48;;
26906;SDS011;14472;56.880;16.658;2023-09-19T02:41:59;16.35;;;11.98;;
26906;SDS011;14472;56.880;16.658;2023-09-19T02:44:26;14.35;;;12.30;;
26906;SDS011;14472;56.880;16.658;2023-09-19T02:46:52;15.30;;;12.52;;
26906;SDS011;14472;56.880;16.658;2023-09-19T02:49:18;13.13;;;11.23;;
26906;SDS011;14472;56.880;16.658;2023-09-19T02:51:44;14.52;;;11.80;;
26906;SDS011;14472;56.880;16.658;2023-09-19T02:54:10;13.93;;;12.02;;
26906;SDS011;14472;56.880;16.658;2023-09-19T02:56:36;13.77;;;12.45;;
26906;SDS011;14472;56.880;16.658;2023-09-19T02:59:03;16.92;;;12.20;;
26906;SDS011;14472;56.880;16.658;2023-09-19T03:01:28;13.20;;;11.15;;
26906;SDS011;14472;56.880;16.658;2023-09-19T03:03:54;14.55;;;11.30;;
26906;SDS011;14472;56.880;16.658;2023-09-19T03:06:20;14.45;;;11.82;;
26906;SDS011;14472;56.880;16.658;2023-09-19T03:08:47;13.00;;;11.55;;
26906;SDS011;14472;56.880;16.658;2023-09-19T03:11:15;12.48;;;11.10;;
26906;SDS011;14472;56.880;16.658;2023-09-19T03:13:44;14.05;;;12.13;;
26906;SDS011;14472;56.880;16.658;2023-09-19T03:16:11;13.48;;;11.20;;
26906;SDS011;14472;56.880;16.658;2023-09-19T03:18:36;14.30;;;11.43;;
26906;SDS011;14472;56.880;16.658;2023-09-19T03:21:02;12.40;;;10.82;;
26906;SDS011;14472;56.880;16.658;2023-09-19T03:23:29;15.73;;;11.43;;
26906;SDS011;14472;56.880;16.658;2023-09-19T03:25:55;13.20;;;11.05;;
26906;SDS011;14472;56.880;16.658;2023-09-19T03:28:21;15.95;;;10.77;;
26906;SDS011;14472;56.880;16.658;2023-09-19T03:31:04;12.82;;;10.50;;
26906;SDS011;14472;56.880;16.658;2023-09-19T03:33:31;14.45;;;10.52;;
26906;SDS011;14472;56.880;16.658;2023-09-19T03:35:58;12.80;;;10.38;;
26906;SDS011;14472;56.880;16.658;2023-09-19T03:38:24;13.52;;;11.07;;
26906;SDS011;14472;56.880;16.658;2023-09-19T03:40:50;15.23;;;10.85;;
26906;SDS011;14472;56.880;16.658;2023-09-19T03:43:16;14.77;;;11.27;;
26906;SDS011;14472;56.880;16.658;2023-09-19T03:45:42;13.70;;;10.60;;
26906;SDS011;14472;56.880;16.658;2023-09-19T03:48:09;13.35;;;9.93;;
26906;SDS011;14472;56.880;16.658;2023-09-19T03:50:35;13.65;;;10.63;;
26906;SDS011;14472;56.880;16.658;2023-09-19T03:53:01;11.70;;;10.50;;
26906;SDS011;14472;56.880;16.658;2023-09-19T03:55:27;12.60;;;10.43;;
26906;SDS011;14472;56.880;16.658;2023-09-19T03:57:53;13.45;;;10.85;;
26906;SDS011;14472;56.880;16.658;2023-09-19T04:00:18;12.88;;;11.07;;
26906;SDS011;14472;56.880;16.658;2023-09-19T04:02:47;14.32;;;10.40;;
26906;SDS011;14472;56.880;16.658;2023-09-19T04:05:13;14.13;;;11.15;;
26906;SDS011;14472;56.880;16.658;2023-09-19T04:07:39;12.05;;;10.85;;
26906;SDS011;14472;56.880;16.658;2023-09-19T04:10:05;15.02;;;10.68;;
26906;SDS011;14472;56.880;16.658;2023-09-19T04:12:33;14.05;;;10.32;;
26906;SDS011;14472;56.880;16.658;2023-09-19T04:14:59;12.43;;;10.25;;
26906;SDS011;14472;56.880;16.658;2023-09-19T04:17:25;13.77;;;10.35;;
26906;SDS011;14472;56.880;16.658;2023-09-19T04:19:50;16.80;;;9.93;;
26906;SDS011;14472;56.880;16.658;2023-09-19T04:22:16;13.55;;;9.18;;
26906;SDS011;14472;56.880;16.658;2023-09-19T04:24:42;13.10;;;10.02;;
26906;SDS011;14472;56.880;16.658;2023-09-19T04:27:08;13.63;;;9.70;;
26906;SDS011;14472;56.880;16.658;2023-09-19T04:29:34;13.57;;;8.85;;
26906;SDS011;14472;56.880;16.658;2023-09-19T04:32:00;12.00;;;8.00;;
26906;SDS011;14472;56.880;16.658;2023-09-19T04:34:29;10.73;;;8.13;;
26906;SDS011;14472;56.880;16.658;2023-09-19T04:36:55;9.25;;;8.13;;
26906;SDS011;14472;56.880;16.658;2023-09-19T04:39:23;10.45;;;7.03;;
26906;SDS011;14472;56.880;16.658;2023-09-19T04:41:51;12.00;;;7.22;;
26906;SDS011;14472;56.880;16.658;2023-09-19T04:44:17;11.45;;;7.10;;
26906;SDS011;14472;56.880;16.658;2023-09-19T04:46:43;11.60;;;6.60;;
26906;SDS011;14472;56.880;16.658;2023-09-19T04:49:11;10.10;;;6.55;;
26906;SDS011;14472;56.880;16.658;2023-09-19T04:51:37;11.73;;;6.53;;
26906;SDS011;14472;56.880;16.658;2023-09-19T04:54:03;10.90;;;6.60;;
26906;SDS011;14472;56.880;16.658;2023-09-19T04:56:29;8.02;;;6.60;;
26906;SDS011;14472;56.880;16.658;2023-09-19T04:58:57;10.07;;;6.03;;
26906;SDS011;14472;56.880;16.658;2023-09-19T05:01:26;11.35;;;6.22;;
26906;SDS011;14472;56.880;16.658;2023-09-19T05:03:52;10.73;;;6.25;;
26906;SDS011;14472;56.880;16.658;2023-09-19T05:06:18;10.65;;;5.82;;
26906;SDS011;14472;56.880;16.658;2023-09-19T05:08:46;12.00;;;6.65;;
26906;SDS011;14472;56.880;16.658;2023-09-19T05:11:16;13.70;;;6.97;;
26906;SDS011;14472;56.880;16.658;2023-09-19T05:13:46;8.55;;;6.57;;
26906;SDS011;14472;56.880;16.658;2023-09-19T05:16:12;8.80;;;6.30;;
26906;SDS011;14472;56.880;16.658;2023-09-19T05:18:38;13.43;;;6.78;;
26906;SDS011;14472;56.880;16.658;2023-09-19T05:21:04;9.45;;;6.68;;
26906;SDS011;14472;56.880;16.658;2023-09-19T05:23:30;10.30;;;6.28;;
26906;SDS011;14472;56.880;16.658;2023-09-19T05:25:56;8.77;;;6.50;;
26906;SDS011;14472;56.880;16.658;2023-09-19T05:28:23;9.50;;;6.22;;
26906;SDS011;14472;56.880;16.658;2023-09-19T05:30:49;9.70;;;6.53;;
26906;SDS011;14472;56.880;16.658;2023-09-19T05:33:15;9.82;;;7.00;;
26906;SDS011;14472;56.880;16.658;2023-09-19T05:35:43;9.55;;;6.40;;
26906;SDS011;14472;56.880;16.658;2023-09-19T05:38:10;12.00;;;6.15;;
26906;SDS011;14472;56.880;16.658;2023-09-19T05:40:38;9.18;;;5.68;;
26906;SDS011;14472;56.880;16.658;2023-09-19T05:43:07;12.20;;;6.15;;
26906;SDS011;14472;56.880;16.658;2023-09-19T05:45:33;9.38;;;6.13;;
26906;SDS011;14472;56.880;16.658;2023-09-19T05:48:07;10.02;;;5.38;;
26906;SDS011;14472;56.880;16.658;2023-09-19T05:50:34;9.45;;;5.30;;
26906;SDS011;14472;56.880;16.658;2023-09-19T05:52:59;10.73;;;6.20;;
26906;SDS011;14472;56.880;16.658;2023-09-19T05:55:25;5.90;;;5.28;;
26906;SDS011;14472;56.880;16.658;2023-09-19T05:57:51;5.72;;;4.53;;
26906;SDS011;14472;56.880;16.658;2023-09-19T06:00:21;7.38;;;4.70;;
26906;SDS011;14472;56.880;16.658;2023-09-19T06:02:54;8.70;;;5.10;;
26906;SDS011;14472;56.880;16.658;2023-09-19T06:05:20;9.75;;;4.68;;
26906;SDS011;14472;56.880;16.658;2023-09-19T06:07:47;6.03;;;4.00;;
26906;SDS011;14472;56.880;16.658;2023-09-19T06:10:13;6.38;;;4.10;;
26906;SDS011;14472;56.880;16.658;2023-09-19T06:12:40;6.45;;;3.80;;
26906;SDS011;14472;56.880;16.658;2023-09-19T06:15:09;7.60;;;3.65;;
26906;SDS011;14472;56.880;16.658;2023-09-19T06:17:40;6.00;;;3.60;;
26906;SDS011;14472;56.880;16.658;2023-09-19T06:20:13;5.63;;;3.33;;
26906;SDS011;14472;56.880;16.658;2023-09-19T06:22:44;5.50;;;4.00;;
26906;SDS011;14472;56.880;16.658;2023-09-19T06:25:11;5.20;;;3.50;;
26906;SDS011;14472;56.880;16.658;2023-09-19T06:27:38;6.22;;;3.50;;
26906;SDS011;14472;56.880;16.658;2023-09-19T06:30:08;4.95;;;3.30;;
26906;SDS011;14472;56.880;16.658;2023-09-19T06:32:34;5.63;;;3.22;;
26906;SDS011;14472;56.880;16.658;2023-09-19T06:35:01;7.38;;;3.30;;
26906;SDS011;14472;56.880;16.658;2023-09-19T06:37:28;8.05;;;3.53;;
26906;SDS011;14472;56.880;16.658;2023-09-19T06:39:54;7.03;;;3.50;;
26906;SDS011;14472;56.880;16.658;2023-09-19T06:42:20;5.28;;;3.40;;
26906;SDS011;14472;56.880;16.658;2023-09-19T06:44:47;7.03;;;3.70;;
26906;SDS011;14472;56.880;16.658;2023-09-19T06:47:13;6.50;;;3.50;;
26906;SDS011;14472;56.880;16.658;2023-09-19T06:49:41;4.72;;;3.05;;
26906;SDS011;14472;56.880;16.658;2023-09-19T06:52:09;6.20;;;3.30;;
26906;SDS011;14472;56.880;16.658;2023-09-19T06:54:35;4.97;;;3.10;;
26906;SDS011;14472;56.880;16.658;2023-09-19T06:57:01;5.20;;;3.08;;
26906;SDS011;14472;56.880;16.658;2023-09-19T06:59:27;8.38;;;3.10;;
26906;SDS011;14472;56.880;16.658;2023-09-19T07:01:52;6.43;;;3.13;;
26906;SDS011;14472;56.880;16.658;2023-09-19T07:04:18;5.15;;;2.80;;
26906;SDS011;14472;56.880;16.658;2023-09-19T07:06:50;6.82;;;3.08;;
26906;SDS011;14472;56.880;16.658;2023-09-19T07:09:16;7.38;;;2.72;;
26906;SDS011;14472;56.880;16.658;2023-09-19T07:11:43;6.38;;;2.80;;
26906;SDS011;14472;56.880;16.658;2023-09-19T07:14:09;5.13;;;2.72;;
26906;SDS011;14472;56.880;16.658;2023-09-19T07:16:37;6.50;;;2.90;;
26906;SDS011;14472;56.880;16.658;2023-09-19T07:19:04;4.72;;;2.90;;
26906;SDS011;14472;56.880;16.658;2023-09-19T07:21:30;5.80;;;2.70;;
26906;SDS011;14472;56.880;16.658;2023-09-19T07:23:59;5.80;;;2.75;;
26906;SDS011;14472;56.880;16.658;2023-09-19T07:26:26;2.70;;;2.45;;
26906;SDS011;14472;56.880;16.658;2023-09-19T07:28:53;5.80;;;2.35;;
26906;SDS011;14472;56.880;16.658;2023-09-19T07:31:19;5.55;;;2.90;;
26906;SDS011;14472;56.880;16.658;2023-09-19T07:33:45;4.70;;;2.38;;
26906;SDS011;14472;56.880;16.658;2023-09-19T07:36:11;3.28;;;2.38;;
26906;SDS011;14472;56.880;16.658;2023-09-19T07:38:39;5.43;;;2.80;;
26906;SDS011;14472;56.880;16.658;2023-09-19T07:41:05;6.45;;;2.80;;
26906;SDS011;14472;56.880;16.658;2023-09-19T07:43:32;7.15;;;2.35;;
26906;SDS011;14472;56.880;16.658;2023-09-19T07:46:02;5.53;;;2.35;;
26906;SDS011;14472;56.880;16.658;2023-09-19T07:48:30;3.83;;;1.90;;
26906;SDS011;14472;56.880;16.658;2023-09-19T07:50:55;3.90;;;2.20;;
26906;SDS011;14472;56.880;16.658;2023-09-19T07:53:21;3.25;;;2.00;;
26906;SDS011;14472;56.880;16.658;2023-09-19T07:55:47;3.97;;;2.08;;
26906;SDS011;14472;56.880;16.658;2023-09-19T07:58:13;4.10;;;2.03;;
26906;SDS011;14472;56.880;16.658;2023-09-19T08:00:40;6.38;;;1.98;;
26906;SDS011;14472;56.880;16.658;2023-09-19T08:03:06;3.85;;;2.00;;
26906;SDS011;14472;56.880;16.658;2023-09-19T08:05:33;2.55;;;1.65;;
26906;SDS011;14472;56.880;16.658;2023-09-19T08:07:59;3.20;;;1.60;;
26906;SDS011;14472;56.880;16.658;2023-09-19T08:10:26;3.40;;;1.85;;
26906;SDS011;14472;56.880;16.658;2023-09-19T08:12:52;5.07;;;1.90;;
26906;SDS011;14472;56.880;16.658;2023-09-19T08:15:23;3.28;;;1.98;;
26906;SDS011;14472;56.880;16.658;2023-09-19T08:17:49;4.60;;;1.95;;
26906;SDS011;14472;56.880;16.658;2023-09-19T08:20:15;2.67;;;1.60;;
26906;SDS011;14472;56.880;16.658;2023-09-19T08:22:52;3.03;;;1.40;;
26906;SDS011;14472;56.880;16.658;2023-09-19T08:25:20;3.85;;;1.88;;
26906;SDS011;14472;56.880;16.658;2023-09-19T08:27:47;3.25;;;1.70;;
26906;SDS011;14472;56.880;16.658;2023-09-19T08:30:21;3.25;;;1.77;;
26906;SDS011;14472;56.880;16.658;2023-09-19T08:32:58;4.70;;;1.40;;
26906;SDS011;14472;56.880;16.658;2023-09-19T08:35:25;2.58;;;1.55;;
26906;SDS011;14472;56.880;16.658;2023-09-19T08:37:51;2.58;;;1.40;;
26906;SDS011;14472;56.880;16.658;2023-09-19T08:40:17;2.70;;;1.73;;
26906;SDS011;14472;56.880;16.658;2023-09-19T08:42:53;3.40;;;1.35;;
26906;SDS011;14472;56.880;16.658;2023-09-19T08:45:20;2.30;;;1.50;;
26906;SDS011;14472;56.880;16.658;2023-09-19T08:48:01;4.72;;;1.80;;
26906;SDS011;14472;56.880;16.658;2023-09-19T08:50:30;2.20;;;1.50;;
26906;SDS011;14472;56.880;16.658;2023-09-19T08:52:56;4.03;;;1.48;;
26906;SDS011;14472;56.880;16.658;2023-09-19T08:55:29;2.90;;;1.67;;
26906;SDS011;14472;56.880;16.658;2023-09-19T08:58:14;3.85;;;1.58;;
26906;SDS011;14472;56.880;16.658;2023-09-19T09:00:44;3.10;;;1.70;;
26906;SDS011;14472;56.880;16.658;2023-09-19T09:03:14;2.67;;;1.48;;
26906;SDS011;14472;56.880;16.658;2023-09-19T09:05:44;4.07;;;1.50;;
26906;SDS011;14472;56.880;16.658;2023-09-19T09:08:11;3.08;;;1.40;;
26906;SDS011;14472;56.880;16.658;2023-09-19T09:10:38;1.75;;;1.13;;
26906;SDS011;14472;56.880;16.658;2023-09-19T09:13:05;2.33;;;1.40;;
26906;SDS011;14472;56.880;16.658;2023-09-19T09:15:32;4.80;;;1.40;;
26906;SDS011;14472;56.880;16.658;2023-09-19T09:18:01;4.40;;;1.30;;
26906;SDS011;14472;56.880;16.658;2023-09-19T09:20:29;2.58;;;1.45;;
26906;SDS011;14472;56.880;16.658;2023-09-19T09:22:56;2.53;;;1.40;;
26906;SDS011;14472;56.880;16.658;2023-09-19T09:28:21;3.55;;;1.70;;
26906;SDS011;14472;56.880;16.658;2023-09-19T09:30:48;2.63;;;1.58;;
26906;SDS011;14472;56.880;16.658;2023-09-19T09:33:15;4.22;;;1.50;;
26906;SDS011;14472;56.880;16.658;2023-09-19T09:38:20;3.47;;;1.40;;
26906;SDS011;14472;56.880;16.658;2023-09-19T09:40:51;2.30;;;1.48;;
26906;SDS011;14472;56.880;16.658;2023-09-19T09:43:43;2.90;;;1.50;;
26906;SDS011;14472;56.880;16.658;2023-09-19T09:46:18;3.33;;;1.60;;
26906;SDS011;14472;56.880;16.658;2023-09-19T09:48:48;3.05;;;1.88;;
26906;SDS011;14472;56.880;16.658;2023-09-19T09:52:03;4.80;;;1.60;;
26906;SDS011;14472;56.880;16.658;2023-09-19T09:55:01;3.65;;;1.77;;
26906;SDS011;14472;56.880;16.658;2023-09-19T09:57:32;4.30;;;1.40;;
26906;SDS011;14472;56.880;16.658;2023-09-19T09:59:59;6.28;;;1.75;;
26906;SDS011;14472;56.880;16.658;2023-09-19T10:02:38;5.05;;;1.90;;
26906;SDS011;14472;56.880;16.658;2023-09-19T10:05:17;4.55;;;1.48;;
26906;SDS011;14472;56.880;16.658;2023-09-19T10:07:53;3.83;;;1.60;;
26906;SDS011;14472;56.880;16.658;2023-09-19T10:10:35;4.80;;;1.50;;
26906;SDS011;14472;56.880;16.658;2023-09-19T10:13:08;2.42;;;1.55;;
26906;SDS011;14472;56.880;16.658;2023-09-19T10:15:38;4.97;;;1.80;;
26906;SDS011;14472;56.880;16.658;2023-09-19T10:18:11;4.05;;;1.58;;
26906;SDS011;14472;56.880;16.658;2023-09-19T10:20:42;2.53;;;1.60;;
26906;SDS011;14472;56.880;16.658;2023-09-19T10:23:13;5.68;;;1.92;;
26906;SDS011;14472;56.880;16.658;2023-09-19T10:25:47;3.22;;;1.73;;
26906;SDS011;14472;56.880;16.658;2023-09-19T10:28:14;3.00;;;1.80;;
26906;SDS011;14472;56.880;16.658;2023-09-19T10:30:42;4.55;;;1.88;;
26906;SDS011;14472;56.880;16.658;2023-09-19T10:33:13;4.10;;;1.60;;
26906;SDS011;14472;56.880;16.658;2023-09-19T10:35:45;4.53;;;1.90;;
26906;SDS011;14472;56.880;16.658;2023-09-19T10:38:13;4.07;;;1.70;;
26906;SDS011;14472;56.880;16.658;2023-09-19T10:40:44;4.72;;;1.40;;
26906;SDS011;14472;56.880;16.658;2023-09-19T10:43:15;3.38;;;1.58;;
26906;SDS011;14472;56.880;16.658;2023-09-19T10:45:46;4.28;;;1.70;;
26906;SDS011;14472;56.880;16.658;2023-09-19T10:48:14;4.22;;;1.50;;
26906;SDS011;14472;56.880;16.658;2023-09-19T10:53:17;4.32;;;1.80;;
26906;SDS011;14472;56.880;16.658;2023-09-19T10:55:49;6.13;;;1.75;;
26906;SDS011;14472;56.880;16.658;2023-09-19T10:58:26;2.67;;;1.50;;
26906;SDS011;14472;56.880;16.658;2023-09-19T11:00:54;4.25;;;1.70;;
26906;SDS011;14472;56.880;16.658;2023-09-19T11:03:30;3.63;;;1.70;;
26906;SDS011;14472;56.880;16.658;2023-09-19T11:14:14;6.10;;;2.10;;
26906;SDS011;14472;56.880;16.658;2023-09-19T11:30:39;3.78;;;1.90;;
26906;SDS011;14472;56.880;16.658;2023-09-19T11:43:51;4.43;;;1.60;;
26906;SDS011;14472;56.880;16.658;2023-09-19T11:46:21;4.90;;;1.83;;
26906;SDS011;14472;56.880;16.658;2023-09-19T11:48:50;2.97;;;1.70;;
26906;SDS011;14472;56.880;16.658;2023-09-19T11:51:17;5.90;;;1.90;;
26906;SDS011;14472;56.880;16.658;2023-09-19T11:53:49;8.30;;;2.10;;
26906;SDS011;14472;56.880;16.658;2023-09-19T11:56:16;6.47;;;1.98;;
26906;SDS011;14472;56.880;16.658;2023-09-19T11:58:46;3.53;;;1.83;;
26906;SDS011;14472;56.880;16.658;2023-09-19T12:01:21;4.18;;;2.00;;
26906;SDS011;14472;56.880;16.658;2023-09-19T12:03:54;4.15;;;1.98;;
26906;SDS011;14472;56.880;16.658;2023-09-19T12:06:23;9.00;;;2.17;;
26906;SDS011;14472;56.880;16.658;2023-09-19T12:08:49;6.22;;;1.90;;
26906;SDS011;14472;56.880;16.658;2023-09-19T12:11:21;3.47;;;1.70;;
26906;SDS011;14472;56.880;16.658;2023-09-19T12:13:48;4.22;;;1.55;;
26906;SDS011;14472;56.880;16.658;2023-09-19T12:16:15;4.65;;;2.05;;
26906;SDS011;14472;56.880;16.658;2023-09-19T12:18:42;5.18;;;1.50;;
26906;SDS011;14472;56.880;16.658;2023-09-19T12:26:44;5.80;;;1.60;;
26906;SDS011;14472;56.880;16.658;2023-09-19T12:29:16;5.45;;;1.85;;
26906;SDS011;14472;56.880;16.658;2023-09-19T12:32:01;7.28;;;2.08;;
26906;SDS011;14472;56.880;16.658;2023-09-19T12:34:29;8.75;;;2.00;;
26906;SDS011;14472;56.880;16.658;2023-09-19T12:37:09;6.35;;;2.10;;
26906;SDS011;14472;56.880;16.658;2023-09-19T12:39:52;5.50;;;1.70;;
26906;SDS011;14472;56.880;16.658;2023-09-19T12:42:23;4.65;;;1.60;;
26906;SDS011;14472;56.880;16.658;2023-09-19T12:44:53;4.88;;;1.58;;
26906;SDS011;14472;56.880;16.658;2023-09-19T12:47:22;6.28;;;2.20;;
26906;SDS011;14472;56.880;16.658;2023-09-19T12:50:22;7.10;;;1.80;;
26906;SDS011;14472;56.880;16.658;2023-09-19T12:52:50;5.75;;;1.58;;
26906;SDS011;14472;56.880;16.658;2023-09-19T12:55:21;6.28;;;1.70;;
26906;SDS011;14472;56.880;16.658;2023-09-19T12:58:13;3.47;;;1.50;;
26906;SDS011;14472;56.880;16.658;2023-09-19T13:00:44;4.57;;;1.80;;
26906;SDS011;14472;56.880;16.658;2023-09-19T13:06:00;3.53;;;1.42;;
26906;SDS011;14472;56.880;16.658;2023-09-19T13:08:38;4.30;;;1.40;;
26906;SDS011;14472;56.880;16.658;2023-09-19T13:13:47;5.38;;;1.48;;
26906;SDS011;14472;56.880;16.658;2023-09-19T13:16:19;6.97;;;1.80;;
26906;SDS011;14472;56.880;16.658;2023-09-19T13:21:39;3.50;;;1.55;;
26906;SDS011;14472;56.880;16.658;2023-09-19T13:24:22;4.93;;;1.58;;
26906;SDS011;14472;56.880;16.658;2023-09-19T13:26:51;4.25;;;1.52;;
26906;SDS011;14472;56.880;16.658;2023-09-19T13:29:16;4.22;;;1.30;;
26906;SDS011;14472;56.880;16.658;2023-09-19T13:31:49;7.05;;;1.75;;
26906;SDS011;14472;56.880;16.658;2023-09-19T13:34:18;4.38;;;1.30;;
26906;SDS011;14472;56.880;16.658;2023-09-19T13:36:45;4.60;;;1.42;;
26906;SDS011;14472;56.880;16.658;2023-09-19T13:39:13;5.15;;;1.50;;
26906;SDS011;14472;56.880;16.658;2023-09-19T13:41:41;3.22;;;1.30;;
26906;SDS011;14472;56.880;16.658;2023-09-19T13:44:08;5.05;;;1.52;;
26906;SDS011;14472;56.880;16.658;2023-09-19T13:46:35;7.03;;;1.52;;
26906;SDS011;14472;56.880;16.658;2023-09-19T13:49:02;5.03;;;1.60;;
26906;SDS011;14472;56.880;16.658;2023-09-19T13:51:31;4.00;;;1.40;;
26906;SDS011;14472;56.880;16.658;2023-09-19T13:53:57;4.63;;;1.60;;
26906;SDS011;14472;56.880;16.658;2023-09-19T13:56:24;3.78;;;1.50;;
26906;SDS011;14472;56.880;16.658;2023-09-19T13:58:55;5.68;;;1.70;;
26906;SDS011;14472;56.880;16.658;2023-09-19T14:01:21;4.38;;;1.67;;
26906;SDS011;14472;56.880;16.658;2023-09-19T14:03:46;2.55;;;1.08;;
26906;SDS011;14472;56.880;16.658;2023-09-19T14:06:14;2.33;;;1.10;;
26906;SDS011;14472;56.880;16.658;2023-09-19T14:08:40;4.80;;;1.30;;
26906;SDS011;14472;56.880;16.658;2023-09-19T14:11:07;3.00;;;1.08;;
26906;SDS011;14472;56.880;16.658;2023-09-19T14:13:33;2.22;;;1.08;;
26906;SDS011;14472;56.880;16.658;2023-09-19T14:16:05;4.20;;;1.30;;
26906;SDS011;14472;56.880;16.658;2023-09-19T14:18:33;2.13;;;1.38;;
26906;SDS011;14472;56.880;16.658;2023-09-19T14:21:06;3.17;;;1.23;;
26906;SDS011;14472;56.880;16.658;2023-09-19T14:23:36;2.10;;;1.33;;
26906;SDS011;14472;56.880;16.658;2023-09-19T14:26:06;3.65;;;1.20;;
26906;SDS011;14472;56.880;16.658;2023-09-19T14:28:32;3.00;;;1.23;;
26906;SDS011;14472;56.880;16.658;2023-09-19T14:31:03;3.75;;;1.20;;
26906;SDS011;14472;56.880;16.658;2023-09-19T14:33:36;4.78;;;1.40;;
26906;SDS011;14472;56.880;16.658;2023-09-19T14:36:06;6.68;;;1.10;;
26906;SDS011;14472;56.880;16.658;2023-09-19T14:38:34;5.53;;;1.23;;
26906;SDS011;14472;56.880;16.658;2023-09-19T14:41:01;3.65;;;1.45;;
26906;SDS011;14472;56.880;16.658;2023-09-19T14:43:28;2.88;;;1.15;;
26906;SDS011;14472;56.880;16.658;2023-09-19T14:46:06;3.00;;;1.10;;
26906;SDS011;14472;56.880;16.658;2023-09-19T14:48:35;2.47;;;1.05;;
26906;SDS011;14472;56.880;16.658;2023-09-19T14:51:05;3.35;;;1.13;;
26906;SDS011;14472;56.880;16.658;2023-09-19T14:53:34;2.45;;;1.15;;
26906;SDS011;14472;56.880;16.658;2023-09-19T14:56:03;3.40;;;1.35;;
26906;SDS011;14472;56.880;16.658;2023-09-19T14:58:33;2.35;;;1.05;;
26906;SDS011;14472;56.880;16.658;2023-09-19T15:01:06;3.17;;;1.20;;
26906;SDS011;14472;56.880;16.658;2023-09-19T15:03:33;2.28;;;1.13;;
26906;SDS011;14472;56.880;16.658;2023-09-19T15:06:03;4.03;;;1.17;;
26906;SDS011;14472;56.880;16.658;2023-09-19T15:08:30;3.40;;;1.35;;
26906;SDS011;14472;56.880;16.658;2023-09-19T15:10:57;3.47;;;1.10;;
26906;SDS011;14472;56.880;16.658;2023-09-19T15:13:23;4.00;;;1.20;;
26906;SDS011;14472;56.880;16.658;2023-09-19T15:15:58;4.93;;;1.30;;
26906;SDS011;14472;56.880;16.658;2023-09-19T15:18:25;3.45;;;1.45;;
26906;SDS011;14472;56.880;16.658;2023-09-19T15:20:50;4.90;;;1.35;;
26906;SDS011;14472;56.880;16.658;2023-09-19T15:23:16;3.72;;;1.35;;
26906;SDS011;14472;56.880;16.658;2023-09-19T15:25:50;3.95;;;1.33;;
26906;SDS011;14472;56.880;16.658;2023-09-19T15:28:15;4.28;;;1.05;;
26906;SDS011;14472;56.880;16.658;2023-09-19T15:30:41;3.55;;;1.30;;
26906;SDS011;14472;56.880;16.658;2023-09-19T15:33:07;5.88;;;1.17;;
26906;SDS011;14472;56.880;16.658;2023-09-19T15:35:33;1.70;;;1.10;;
26906;SDS011;14472;56.880;16.658;2023-09-19T15:38:02;4.03;;;1.40;;
26906;SDS011;14472;56.880;16.658;2023-09-19T15:40:28;3.40;;;1.27;;